createdAt,value
2022-08-07T00:02:37.130Z,95.70
2022-08-07T00:04:31.507Z,95.70
2022-08-07T00:07:01.385Z,95.70
2022-08-07T00:09:35.643Z,95.60
2022-08-07T00:12:03.448Z,95.70
2022-08-07T00:14:32.985Z,95.80
2022-08-07T00:17:03.686Z,95.80
2022-08-07T00:20:02.604Z,95.90
2022-08-07T00:22:07.127Z,96.00
2022-08-07T00:24:38.304Z,96.20
2022-08-07T00:27:09.744Z,96.40
2022-08-07T00:29:40.631Z,96.20
2022-08-07T00:32:13.457Z,96.30
2022-08-07T00:34:44.032Z,96.30
2022-08-07T00:37:14.953Z,96.30
2022-08-07T00:39:45.059Z,96.40
2022-08-07T00:42:15.096Z,96.40
2022-08-07T00:44:46.098Z,96.40
2022-08-07T00:48:08.136Z,96.50
2022-08-07T00:50:19.444Z,96.40
2022-08-07T00:52:20.367Z,96.60
2022-08-07T00:54:54.216Z,96.70
2022-08-07T00:57:26.078Z,96.70
2022-08-07T00:59:56.041Z,96.70
2022-08-07T01:02:29.683Z,96.90
2022-08-07T01:05:02.372Z,97.00
2022-08-07T01:07:32.018Z,97.20
2022-08-07T01:10:11.191Z,97.20
2022-08-07T01:12:38.068Z,97.30
2022-08-07T01:15:11.899Z,97.50
2022-08-07T01:17:41.627Z,97.40
2022-08-07T01:20:16.943Z,97.60
2022-08-07T01:22:54.050Z,97.60
2022-08-07T01:25:53.885Z,97.70
2022-08-07T01:27:52.965Z,97.80
2022-08-07T01:30:27.459Z,98.10
2022-08-07T01:33:00.919Z,98.50
2022-08-07T01:35:37.017Z,98.50
2022-08-07T01:38:05.206Z,98.80
2022-08-07T01:40:36.879Z,99.00
2022-08-07T01:43:09.260Z,99.00
2022-08-07T01:45:40.603Z,99.30
2022-08-07T01:48:19.995Z,99.30
2022-08-07T01:50:57.490Z,99.60
2022-08-07T01:54:08.894Z,99.80
2022-08-07T01:56:06.567Z,99.60
2022-08-07T01:58:40.914Z,99.50
2022-08-07T02:01:58.937Z,99.70
2022-08-07T02:03:50.429Z,99.90
2022-08-07T02:06:31.383Z,99.90
2022-08-07T02:08:56.393Z,99.90
2022-08-07T02:11:30.711Z,99.90
2022-08-07T02:14:02.350Z,99.90
2022-08-07T02:16:33.803Z,99.90
2022-08-07T02:20:05.339Z,99.90
2022-08-07T02:21:55.976Z,99.90
2022-08-07T02:26:30.758Z,99.90
2022-08-07T02:28:27.027Z,99.90
2022-08-07T02:30:52.984Z,99.90
2022-08-07T02:33:24.892Z,99.90
2022-08-07T02:36:30.916Z,99.90
2022-08-07T02:38:33.653Z,99.90
2022-08-07T02:41:05.047Z,99.90
2022-08-07T02:43:39.438Z,99.90
2022-08-07T02:46:09.641Z,99.90
2022-08-07T02:48:40.426Z,99.90
2022-08-07T02:51:42.667Z,99.90
2022-08-07T02:53:53.407Z,99.90
2022-08-07T02:56:26.268Z,99.90
2022-08-07T02:59:00.159Z,99.90
2022-08-07T03:01:36.143Z,99.90
2022-08-07T03:04:07.040Z,99.90
2022-08-07T03:06:36.207Z,99.90
2022-08-07T03:09:11.263Z,99.90
2022-08-07T03:11:51.845Z,99.90
2022-08-07T03:14:13.357Z,99.90
2022-08-07T03:16:44.737Z,99.90
2022-08-07T03:19:14.414Z,99.90
2022-08-07T03:21:50.520Z,99.90
2022-08-07T03:24:20.685Z,99.90
2022-08-07T03:26:51.083Z,99.90
2022-08-07T03:29:22.016Z,99.90
2022-08-07T03:31:53.461Z,99.90
2022-08-07T03:34:27.339Z,99.90
2022-08-07T03:36:58.821Z,99.90
2022-08-07T03:39:58.921Z,99.90
2022-08-07T03:42:02.467Z,99.90
2022-08-07T03:44:35.016Z,99.90
2022-08-07T03:47:11.166Z,99.90
2022-08-07T03:49:38.315Z,99.90
2022-08-07T03:52:17.670Z,99.90
2022-08-07T03:54:54.511Z,99.90
2022-08-07T03:58:33.519Z,99.90
2022-08-07T03:59:46.481Z,99.90
2022-08-07T04:02:17.843Z,99.90
2022-08-07T04:04:48.732Z,99.90
2022-08-07T04:07:22.865Z,99.90
2022-08-07T04:09:53.061Z,99.90
2022-08-07T04:12:29.004Z,99.90
2022-08-07T04:14:57.795Z,99.90
2022-08-07T04:18:04.582Z,99.90
2022-08-07T04:20:01.475Z,99.90
2022-08-07T04:22:33.448Z,99.90
2022-08-07T04:25:08.642Z,99.90
2022-08-07T04:27:44.017Z,99.90
2022-08-07T04:30:36.033Z,99.90
2022-08-07T04:32:47.870Z,99.90
2022-08-07T04:35:18.990Z,99.90
2022-08-07T04:38:03.275Z,99.90
2022-08-07T04:40:26.600Z,99.90
2022-08-07T04:42:56.184Z,99.90
2022-08-07T04:45:57.279Z,99.90
2022-08-07T04:48:10.656Z,99.90
2022-08-07T04:50:42.315Z,99.90
2022-08-07T04:53:40.010Z,99.90
2022-08-07T04:58:12.544Z,99.90
2022-08-07T04:59:17.155Z,99.90
2022-08-07T05:01:45.753Z,99.90
2022-08-07T05:04:20.789Z,99.90
2022-08-07T05:06:54.672Z,99.90
2022-08-07T05:09:45.923Z,99.90
2022-08-07T05:12:08.952Z,99.90
2022-08-07T05:14:58.968Z,99.90
2022-08-07T05:17:50.968Z,99.90
2022-08-07T05:19:54.408Z,99.90
2022-08-07T05:22:26.959Z,99.90
2022-08-07T05:24:59.628Z,99.90
2022-08-07T05:28:16.719Z,99.90
2022-08-07T05:30:03.884Z,99.90
2022-08-07T05:32:34.482Z,99.90
2022-08-07T05:35:05.388Z,99.90
2022-08-07T05:37:40.711Z,99.90
2022-08-07T05:40:17.710Z,99.90
2022-08-07T05:42:43.000Z,99.90
2022-08-07T05:45:46.285Z,99.90
2022-08-07T05:48:02.407Z,99.90
2022-08-07T05:50:19.646Z,99.90
2022-08-07T05:52:50.029Z,99.90
2022-08-07T05:55:19.786Z,99.90
2022-08-07T05:57:51.851Z,99.90
2022-08-07T06:00:24.058Z,99.90
2022-08-07T06:02:58.544Z,99.90
2022-08-07T06:05:31.530Z,99.90
2022-08-07T06:08:29.486Z,99.90
2022-08-07T06:10:38.215Z,99.90
2022-08-07T06:13:13.557Z,99.90
2022-08-07T06:15:42.691Z,99.90
2022-08-07T06:18:14.352Z,99.90
2022-08-07T06:20:50.699Z,99.90
2022-08-07T06:23:46.724Z,99.90
2022-08-07T06:25:54.336Z,99.90
2022-08-07T06:28:27.905Z,99.90
2022-08-07T06:30:52.817Z,99.90
2022-08-07T06:33:25.357Z,99.90
2022-08-07T06:36:13.004Z,99.90
2022-08-07T06:38:26.170Z,99.90
2022-08-07T06:40:59.030Z,99.90
2022-08-07T06:43:39.511Z,99.90
2022-08-07T06:46:12.238Z,99.90
2022-08-07T06:48:42.127Z,99.90
2022-08-07T06:51:15.875Z,99.90
2022-08-07T06:55:29.607Z,99.70
2022-08-07T06:56:23.706Z,99.10
2022-08-07T07:00:13.123Z,98.80
2022-08-07T07:01:26.688Z,98.50
2022-08-07T07:04:08.259Z,97.90
2022-08-07T07:06:29.142Z,97.40
2022-08-07T07:09:19.094Z,97.00
2022-08-07T07:12:19.572Z,97.20
2022-08-07T07:15:04.048Z,96.70
2022-08-07T07:17:50.622Z,96.70
2022-08-07T07:20:27.015Z,96.10
2022-08-07T07:24:06.450Z,96.10
2022-08-07T07:26:32.840Z,95.80
2022-08-07T07:28:07.811Z,95.60
2022-08-07T07:30:39.973Z,95.40
2022-08-07T07:33:12.410Z,95.80
2022-08-07T07:36:04.121Z,95.30
2022-08-07T07:38:18.733Z,95.40
2022-08-07T07:40:50.148Z,94.90
2022-08-07T07:43:48.097Z,95.10
2022-08-07T07:46:37.587Z,94.90
2022-08-07T07:48:35.682Z,94.10
2022-08-07T07:51:00.406Z,94.40
2022-08-07T07:53:34.790Z,94.30
2022-08-07T07:56:06.157Z,94.60
2022-08-07T07:58:40.911Z,94.40
2022-08-07T08:02:05.074Z,94.10
2022-08-07T08:04:09.366Z,94.20
2022-08-07T08:06:18.777Z,94.00
2022-08-07T08:08:52.110Z,93.60
2022-08-07T08:12:00.136Z,93.80
2022-08-07T08:13:55.782Z,93.70
2022-08-07T08:16:29.829Z,93.70
2022-08-07T08:19:17.804Z,93.70
2022-08-07T08:22:02.539Z,93.40
2022-08-07T08:24:45.381Z,93.20
2022-08-07T08:27:16.706Z,92.80
2022-08-07T08:29:54.584Z,92.60
2022-08-07T08:32:25.225Z,92.80
2022-08-07T08:34:57.542Z,92.60
2022-08-07T08:38:01.705Z,92.20
2022-08-07T08:40:07.482Z,92.20
2022-08-07T08:42:56.823Z,92.30
2022-08-07T08:45:59.428Z,92.00
2022-08-07T08:48:32.610Z,92.20
2022-08-07T08:51:14.656Z,91.80
2022-08-07T08:53:52.432Z,91.90
2022-08-07T08:56:31.332Z,91.60
2022-08-07T08:59:13.527Z,91.50
2022-08-07T09:01:46.578Z,91.90
2022-08-07T09:04:25.745Z,91.60
2022-08-07T09:06:54.873Z,91.50
2022-08-07T09:09:47.459Z,91.40
2022-08-07T09:12:32.336Z,91.10
2022-08-07T09:16:24.319Z,90.70
2022-08-07T09:18:10.028Z,91.00
2022-08-07T09:20:40.824Z,89.50
2022-08-07T09:24:33.073Z,90.00
2022-08-07T09:26:34.142Z,90.20
2022-08-07T09:30:01.952Z,89.60
2022-08-07T09:32:17.120Z,89.50
2022-08-07T09:35:04.688Z,88.70
2022-08-07T09:37:53.423Z,88.60
2022-08-07T09:40:21.901Z,87.50
2022-08-07T09:42:58.784Z,88.10
2022-08-07T09:47:42.456Z,87.90
2022-08-07T09:48:43.955Z,88.40
2022-08-07T09:52:16.436Z,86.30
2022-08-07T09:53:59.334Z,86.70
2022-08-07T09:56:41.820Z,87.10
2022-08-07T09:59:28.088Z,86.80
2022-08-07T10:02:15.775Z,86.30
2022-08-07T10:05:12.675Z,84.20
2022-08-07T10:08:17.156Z,85.10
2022-08-07T10:11:17.297Z,85.20
2022-08-07T10:14:00.686Z,84.10
2022-08-07T10:16:36.593Z,85.60
2022-08-07T10:19:14.904Z,85.30
2022-08-07T10:22:14.384Z,86.20
2022-08-07T10:24:46.424Z,85.70
2022-08-07T10:27:19.348Z,84.10
2022-08-07T10:30:13.051Z,84.10
2022-08-07T10:32:52.530Z,83.10
2022-08-07T10:35:56.641Z,83.20
2022-08-07T10:38:36.222Z,83.00
2022-08-07T10:40:54.841Z,84.10
2022-08-07T10:43:34.796Z,83.50
2022-08-07T10:46:07.202Z,82.70
2022-08-07T10:48:57.893Z,82.40
2022-08-07T10:52:01.847Z,80.30
2022-08-07T10:54:31.607Z,81.10
2022-08-07T10:57:34.434Z,80.70
2022-08-07T11:00:36.422Z,80.10
2022-08-07T11:03:12.727Z,81.30
2022-08-07T11:06:02.072Z,80.10
2022-08-07T11:08:57.873Z,80.20
2022-08-07T11:11:35.614Z,79.20
2022-08-07T11:14:46.452Z,78.80
2022-08-07T11:17:01.089Z,79.90
2022-08-07T11:19:37.854Z,79.00
2022-08-07T11:22:26.438Z,78.50
2022-08-07T11:24:54.423Z,79.70
2022-08-07T11:28:00.844Z,79.40
2022-08-07T11:30:18.025Z,78.70
2022-08-07T11:32:41.692Z,79.40
2022-08-07T11:35:26.735Z,78.20
2022-08-07T11:38:21.211Z,77.60
2022-08-07T11:40:52.739Z,75.90
2022-08-07T11:43:29.651Z,78.90
2022-08-07T11:46:08.143Z,78.30
2022-08-07T11:49:50.530Z,78.20
2022-08-07T11:51:48.978Z,78.50
2022-08-07T11:54:55.658Z,78.80
2022-08-07T11:57:58.014Z,77.40
2022-08-07T12:00:10.621Z,76.40
2022-08-07T12:02:59.874Z,76.50
2022-08-07T12:05:50.507Z,77.40
2022-08-07T12:08:25.638Z,77.90
2022-08-07T12:11:00.785Z,76.20
2022-08-07T12:13:37.052Z,76.00
2022-08-07T12:16:09.380Z,75.50
2022-08-07T12:18:51.022Z,75.80
2022-08-07T12:22:37.179Z,76.00
2022-08-07T12:24:36.841Z,74.50
2022-08-07T12:26:53.535Z,74.40
2022-08-07T12:29:38.742Z,73.60
2022-08-07T12:32:04.819Z,75.50
2022-08-07T12:34:37.776Z,73.30
2022-08-07T12:37:16.981Z,73.70
2022-08-07T12:39:50.482Z,74.20
2022-08-07T12:42:17.519Z,75.30
2022-08-07T12:44:51.582Z,74.80
2022-08-07T12:47:46.608Z,76.30
2022-08-07T12:50:34.383Z,75.40
2022-08-07T12:54:02.664Z,74.30
2022-08-07T12:56:13.021Z,73.90
2022-08-07T12:58:53.044Z,74.30
2022-08-07T13:01:32.592Z,74.40
2022-08-07T13:04:32.530Z,74.80
2022-08-07T13:08:12.354Z,73.00
2022-08-07T13:10:39.506Z,73.00
2022-08-07T13:13:46.982Z,72.20
2022-08-07T13:15:57.320Z,73.10
2022-08-07T13:18:44.667Z,71.10
2022-08-07T13:21:37.587Z,71.40
2022-08-07T13:24:05.163Z,71.10
2022-08-07T13:26:46.650Z,69.90
2022-08-07T13:29:28.128Z,70.90
2022-08-07T13:32:31.877Z,72.70
2022-08-07T13:35:08.926Z,71.30
2022-08-07T13:37:58.834Z,72.20
2022-08-07T13:40:36.794Z,71.00
2022-08-07T13:43:04.906Z,70.60
2022-08-07T13:46:10.832Z,72.00
2022-08-07T13:48:20.579Z,71.00
2022-08-07T13:51:00.645Z,70.00
2022-08-07T13:53:21.961Z,72.40
2022-08-07T13:55:54.764Z,72.90
2022-08-07T13:58:43.172Z,71.00
2022-08-07T14:01:21.935Z,70.70
2022-08-07T14:04:05.267Z,71.50
2022-08-07T14:06:26.026Z,70.70
2022-08-07T14:08:58.151Z,71.70
2022-08-07T14:12:00.264Z,70.80
2022-08-07T14:14:10.053Z,69.60
2022-08-07T14:16:45.009Z,70.60
2022-08-07T14:20:41.785Z,70.60
2022-08-07T14:22:01.187Z,69.70
2022-08-07T14:24:41.999Z,70.20
2022-08-07T14:27:22.991Z,70.00
2022-08-07T14:30:02.829Z,69.60
2022-08-07T14:32:28.246Z,69.70
2022-08-07T14:35:01.120Z,70.30
2022-08-07T14:37:38.893Z,70.60
2022-08-07T14:40:15.701Z,70.10
2022-08-07T14:43:01.411Z,70.70
2022-08-07T14:45:21.738Z,70.00
2022-08-07T14:47:46.116Z,69.90
2022-08-07T14:50:19.055Z,70.60
2022-08-07T14:52:51.163Z,69.70
2022-08-07T14:55:23.055Z,70.50
2022-08-07T14:57:57.992Z,70.60
2022-08-07T15:00:30.625Z,70.30
2022-08-07T15:03:17.466Z,71.10
2022-08-07T15:05:35.398Z,71.20
2022-08-07T15:10:58.531Z,70.10
2022-08-07T15:13:22.000Z,69.90
2022-08-07T15:15:54.526Z,69.80
2022-08-07T15:18:35.719Z,69.60
2022-08-07T15:21:08.059Z,69.90
2022-08-07T15:25:14.054Z,69.80
2022-08-07T15:32:01.767Z,70.20
2022-08-07T15:33:49.972Z,68.90
2022-08-07T15:37:02.413Z,69.60
2022-08-07T15:38:59.583Z,71.40
2022-08-07T15:42:46.617Z,68.70
2022-08-07T15:44:07.966Z,69.40
2022-08-07T15:46:51.960Z,68.40
2022-08-07T15:49:15.425Z,69.00
2022-08-07T15:54:19.957Z,69.10
2022-08-07T15:56:51.568Z,67.20
2022-08-07T15:59:39.176Z,69.20
2022-08-07T16:02:01.637Z,68.10
2022-08-07T16:04:34.599Z,68.10
2022-08-07T16:08:30.478Z,68.30
2022-08-07T16:09:43.959Z,67.90
2022-08-07T16:13:01.405Z,67.90
2022-08-07T16:15:57.524Z,68.60
2022-08-07T16:18:50.004Z,68.60
2022-08-07T16:21:57.146Z,68.60
2022-08-07T16:24:34.833Z,68.40
2022-08-07T16:27:18.118Z,68.70
2022-08-07T16:30:17.495Z,68.40
2022-08-07T16:32:34.638Z,69.70
2022-08-07T16:35:58.794Z,69.80
2022-08-07T16:38:19.837Z,70.00
2022-08-07T16:41:02.111Z,69.40
2022-08-07T16:44:02.639Z,68.70
2022-08-07T16:47:08.802Z,68.20
2022-08-07T16:50:20.671Z,69.20
2022-08-07T16:52:50.817Z,69.20
2022-08-07T16:55:14.863Z,69.40
2022-08-07T16:58:04.058Z,69.70
2022-08-07T17:00:45.239Z,69.80
2022-08-07T17:03:58.485Z,69.50
2022-08-07T17:06:29.768Z,68.80
2022-08-07T17:09:10.880Z,67.10
2022-08-07T17:12:04.757Z,67.30
2022-08-07T17:14:19.616Z,66.90
2022-08-07T17:16:55.490Z,66.30
2022-08-07T17:20:03.539Z,66.70
2022-08-07T17:22:30.350Z,67.80
2022-08-07T17:25:08.265Z,66.90
2022-08-07T17:28:01.221Z,66.70
2022-08-07T17:30:38.081Z,66.30
2022-08-07T17:34:09.779Z,66.90
2022-08-07T17:35:55.895Z,68.00
2022-08-07T17:38:34.393Z,68.60
2022-08-07T17:42:01.523Z,68.90
2022-08-07T17:44:33.967Z,69.20
2022-08-07T17:46:55.607Z,68.40
2022-08-07T17:49:31.634Z,69.00
2022-08-07T17:52:20.918Z,68.70
2022-08-07T17:54:55.606Z,69.20
2022-08-07T17:57:59.276Z,70.00
2022-08-07T18:00:33.401Z,69.60
2022-08-07T18:03:21.952Z,69.40
2022-08-07T18:06:09.454Z,68.80
2022-08-07T18:09:01.289Z,69.70
2022-08-07T18:12:16.287Z,69.50
2022-08-07T18:14:23.890Z,69.30
2022-08-07T18:17:02.582Z,68.80
2022-08-07T18:21:06.659Z,69.40
2022-08-07T18:22:29.275Z,69.30
2022-08-07T18:25:18.960Z,69.30
2022-08-07T18:27:55.660Z,69.80
2022-08-07T18:30:36.765Z,69.90
2022-08-07T18:33:28.319Z,69.80
2022-08-07T18:36:05.982Z,69.80
2022-08-07T18:39:01.463Z,70.30
2022-08-07T18:41:57.715Z,70.20
2022-08-07T18:45:43.305Z,71.70
2022-08-07T18:48:00.586Z,71.10
2022-08-07T18:50:46.463Z,70.70
2022-08-07T18:53:36.477Z,71.10
2022-08-07T18:56:01.156Z,71.30
2022-08-07T18:58:51.282Z,71.30
2022-08-07T19:02:19.755Z,72.00
2022-08-07T19:04:19.703Z,71.90
2022-08-07T19:06:54.273Z,71.70
2022-08-07T19:09:56.177Z,71.90
2022-08-07T19:12:26.398Z,72.50
2022-08-07T19:16:05.878Z,72.90
2022-08-07T19:18:02.398Z,73.10
2022-08-07T19:20:38.791Z,73.10
2022-08-07T19:23:19.492Z,74.20
2022-08-07T19:26:23.436Z,73.70
2022-08-07T19:28:56.697Z,73.60
2022-08-07T19:31:42.157Z,73.40
2022-08-07T19:33:36.979Z,73.90
2022-08-07T19:36:08.863Z,73.70
2022-08-07T19:38:53.380Z,73.50
2022-08-07T19:41:16.676Z,73.10
2022-08-07T19:43:55.591Z,73.70
2022-08-07T19:46:29.036Z,73.90
2022-08-07T19:49:09.406Z,73.90
2022-08-07T19:51:51.901Z,74.00
2022-08-07T19:54:34.717Z,74.20
2022-08-07T19:58:04.556Z,74.30
2022-08-07T19:59:39.822Z,75.10
2022-08-07T20:02:05.268Z,75.00
2022-08-07T20:04:42.330Z,75.00
2022-08-07T20:07:23.721Z,75.50
2022-08-07T20:10:36.477Z,75.70
2022-08-07T20:12:34.325Z,75.50
2022-08-07T20:15:00.425Z,75.90
2022-08-07T20:17:33.659Z,75.70
2022-08-07T20:20:08.486Z,75.50
2022-08-07T20:22:41.516Z,76.00
2022-08-07T20:25:12.784Z,76.20
2022-08-07T20:27:47.725Z,76.20
2022-08-07T20:30:22.476Z,76.40
2022-08-07T20:32:53.486Z,77.50
2022-08-07T20:35:27.653Z,76.70
2022-08-07T20:38:00.761Z,76.40
2022-08-07T20:40:34.650Z,77.20
2022-08-07T20:43:09.439Z,76.20
2022-08-07T20:46:25.576Z,76.40
2022-08-07T20:48:28.667Z,76.20
2022-08-07T20:50:46.422Z,76.40
2022-08-07T20:53:16.131Z,76.80
2022-08-07T20:55:53.217Z,76.60
2022-08-07T20:58:32.734Z,77.20
2022-08-07T21:01:19.971Z,77.50
2022-08-07T21:04:19.751Z,77.20
2022-08-07T21:06:31.576Z,77.10
2022-08-07T21:09:13.769Z,76.90
2022-08-07T21:11:50.407Z,77.60
2022-08-07T21:14:32.508Z,77.00
2022-08-07T21:16:56.828Z,77.30
2022-08-07T21:19:31.848Z,77.50
2022-08-07T21:22:05.995Z,77.80
2022-08-07T21:24:39.921Z,78.10
2022-08-07T21:27:14.072Z,78.20
2022-08-07T21:30:00.577Z,78.50
2022-08-07T21:32:47.887Z,79.20
2022-08-07T21:35:11.419Z,79.00
2022-08-07T21:37:59.340Z,79.50
2022-08-07T21:40:19.035Z,79.90
2022-08-07T21:43:07.739Z,80.20
2022-08-07T21:46:08.842Z,80.10
2022-08-07T21:48:33.526Z,80.60
2022-08-07T21:51:19.615Z,80.60
2022-08-07T21:53:55.931Z,80.60
2022-08-07T21:56:48.144Z,80.70
2022-08-07T21:59:25.059Z,80.60
2022-08-07T22:02:07.174Z,80.80
2022-08-07T22:04:34.733Z,81.30
2022-08-07T22:07:10.311Z,81.40
2022-08-07T22:09:54.118Z,81.40
2022-08-07T22:12:24.581Z,81.10
2022-08-07T22:14:59.451Z,82.30
2022-08-07T22:17:36.304Z,81.80
2022-08-07T22:20:36.902Z,82.70
2022-08-07T22:23:29.127Z,83.80
2022-08-07T22:26:25.581Z,82.90
2022-08-07T22:29:02.174Z,82.50
2022-08-07T22:31:56.408Z,82.70
2022-08-07T22:34:14.579Z,83.10
2022-08-07T22:36:56.050Z,83.00
2022-08-07T22:39:52.672Z,84.20
2022-08-07T22:42:19.473Z,84.30
2022-08-07T22:44:57.865Z,84.60
2022-08-07T22:47:21.712Z,84.00
2022-08-07T22:50:20.770Z,83.80
2022-08-07T22:53:16.726Z,84.80
2022-08-07T22:55:49.225Z,84.60
2022-08-07T22:58:48.287Z,84.70
2022-08-07T23:01:42.109Z,85.20
2022-08-07T23:04:11.095Z,85.60
2022-08-07T23:07:28.433Z,85.70
2022-08-07T23:10:05.951Z,85.90
2022-08-07T23:12:39.986Z,86.70
2022-08-07T23:16:04.243Z,87.60
2022-08-07T23:18:09.717Z,87.00
2022-08-07T23:20:52.871Z,87.10
2022-08-07T23:24:05.291Z,87.30
2022-08-07T23:26:23.407Z,88.10
2022-08-07T23:29:42.623Z,88.20
2022-08-07T23:34:23.453Z,88.00
2022-08-07T23:34:39.832Z,87.50
2022-08-07T23:37:22.766Z,87.70
2022-08-07T23:40:01.284Z,88.10
2022-08-07T23:42:54.029Z,88.30
2022-08-07T23:45:33.100Z,88.60
2022-08-07T23:48:11.682Z,88.40
2022-08-07T23:51:01.047Z,88.40
2022-08-07T23:53:49.470Z,88.10
2022-08-07T23:56:21.174Z,89.00
2022-08-07T23:59:10.190Z,89.30
